sensor_id;sensor_type;location;lat;lon;timestamp;P1;durP1;ratioP1;P2;durP2;ratioP2
35891;SDS011;21993;42.672;23.296;2023-07-24T00:00:08;10.43;;;7.80;;
35891;SDS011;21993;42.672;23.296;2023-07-24T00:02:34;10.53;;;6.80;;
35891;SDS011;21993;42.672;23.296;2023-07-24T00:04:59;15.50;;;7.87;;
35891;SDS011;21993;42.672;23.296;2023-07-24T00:07:24;10.57;;;7.00;;
35891;SDS011;21993;42.672;23.296;2023-07-24T00:09:50;11.23;;;8.13;;
35891;SDS011;21993;42.672;23.296;2023-07-24T00:12:15;13.17;;;7.10;;
35891;SDS011;21993;42.672;23.296;2023-07-24T00:14:41;9.47;;;7.03;;
35891;SDS011;21993;42.672;23.296;2023-07-24T00:17:06;11.37;;;7.67;;
35891;SDS011;21993;42.672;23.296;2023-07-24T00:19:31;9.63;;;7.13;;
35891;SDS011;21993;42.672;23.296;2023-07-24T00:21:57;12.03;;;8.00;;
35891;SDS011;21993;42.672;23.296;2023-07-24T00:24:22;12.23;;;7.47;;
35891;SDS011;21993;42.672;23.296;2023-07-24T00:26:48;9.47;;;7.17;;
35891;SDS011;21993;42.672;23.296;2023-07-24T00:29:13;9.97;;;7.13;;
35891;SDS011;21993;42.672;23.296;2023-07-24T00:31:38;10.23;;;7.27;;
35891;SDS011;21993;42.672;23.296;2023-07-24T00:34:04;11.47;;;8.10;;
35891;SDS011;21993;42.672;23.296;2023-07-24T00:36:29;11.20;;;7.47;;
35891;SDS011;21993;42.672;23.296;2023-07-24T00:38:54;14.27;;;7.37;;
35891;SDS011;21993;42.672;23.296;2023-07-24T00:41:20;10.40;;;7.47;;
35891;SDS011;21993;42.672;23.296;2023-07-24T00:43:45;10.63;;;7.33;;
35891;SDS011;21993;42.672;23.296;2023-07-24T00:46:11;9.57;;;6.73;;
35891;SDS011;21993;42.672;23.296;2023-07-24T00:48:37;9.73;;;6.93;;
35891;SDS011;21993;42.672;23.296;2023-07-24T00:51:03;10.20;;;7.30;;
35891;SDS011;21993;42.672;23.296;2023-07-24T00:53:30;10.43;;;7.27;;
35891;SDS011;21993;42.672;23.296;2023-07-24T00:55:55;8.97;;;6.83;;
35891;SDS011;21993;42.672;23.296;2023-07-24T00:58:21;11.60;;;6.77;;
35891;SDS011;21993;42.672;23.296;2023-07-24T01:00:47;8.87;;;6.70;;
35891;SDS011;21993;42.672;23.296;2023-07-24T01:03:13;9.13;;;6.57;;
35891;SDS011;21993;42.672;23.296;2023-07-24T01:05:39;9.10;;;6.53;;
35891;SDS011;21993;42.672;23.296;2023-07-24T01:08:06;9.90;;;7.37;;
35891;SDS011;21993;42.672;23.296;2023-07-24T01:10:31;8.87;;;6.97;;
35891;SDS011;21993;42.672;23.296;2023-07-24T01:13:15;9.17;;;6.53;;
35891;SDS011;21993;42.672;23.296;2023-07-24T01:18:25;11.63;;;7.47;;
35891;SDS011;21993;42.672;23.296;2023-07-24T01:20:55;8.30;;;6.40;;
35891;SDS011;21993;42.672;23.296;2023-07-24T01:26:05;9.90;;;6.77;;
35891;SDS011;21993;42.672;23.296;2023-07-24T01:28:32;11.67;;;7.30;;
35891;SDS011;21993;42.672;23.296;2023-07-24T01:30:57;11.23;;;6.90;;
35891;SDS011;21993;42.672;23.296;2023-07-24T01:33:22;11.43;;;7.53;;
35891;SDS011;21993;42.672;23.296;2023-07-24T01:35:50;10.77;;;7.23;;
35891;SDS011;21993;42.672;23.296;2023-07-24T01:38:18;10.63;;;7.17;;
35891;SDS011;21993;42.672;23.296;2023-07-24T01:40:44;9.10;;;7.07;;
35891;SDS011;21993;42.672;23.296;2023-07-24T01:43:10;11.67;;;6.90;;
35891;SDS011;21993;42.672;23.296;2023-07-24T01:45:36;9.37;;;6.97;;
35891;SDS011;21993;42.672;23.296;2023-07-24T01:48:02;11.20;;;6.93;;
35891;SDS011;21993;42.672;23.296;2023-07-24T01:50:28;10.53;;;6.83;;
35891;SDS011;21993;42.672;23.296;2023-07-24T01:52:54;12.53;;;8.07;;
35891;SDS011;21993;42.672;23.296;2023-07-24T01:55:19;11.17;;;7.47;;
35891;SDS011;21993;42.672;23.296;2023-07-24T01:57:45;11.33;;;7.60;;
35891;SDS011;21993;42.672;23.296;2023-07-24T02:00:10;10.20;;;7.37;;
35891;SDS011;21993;42.672;23.296;2023-07-24T02:02:36;12.87;;;8.07;;
35891;SDS011;21993;42.672;23.296;2023-07-24T02:05:01;8.73;;;7.33;;
35891;SDS011;21993;42.672;23.296;2023-07-24T02:07:27;10.37;;;7.03;;
35891;SDS011;21993;42.672;23.296;2023-07-24T02:09:52;10.60;;;7.20;;
35891;SDS011;21993;42.672;23.296;2023-07-24T02:12:17;11.53;;;7.50;;
35891;SDS011;21993;42.672;23.296;2023-07-24T02:14:43;10.87;;;7.37;;
35891;SDS011;21993;42.672;23.296;2023-07-24T02:17:08;10.27;;;7.30;;
35891;SDS011;21993;42.672;23.296;2023-07-24T02:19:34;10.87;;;6.97;;
35891;SDS011;21993;42.672;23.296;2023-07-24T02:21:59;9.20;;;7.10;;
35891;SDS011;21993;42.672;23.296;2023-07-24T02:24:24;15.13;;;8.00;;
35891;SDS011;21993;42.672;23.296;2023-07-24T02:26:50;8.20;;;6.87;;
35891;SDS011;21993;42.672;23.296;2023-07-24T02:29:15;12.57;;;7.73;;
35891;SDS011;21993;42.672;23.296;2023-07-24T02:31:40;9.77;;;6.90;;
35891;SDS011;21993;42.672;23.296;2023-07-24T02:34:06;10.07;;;7.53;;
35891;SDS011;21993;42.672;23.296;2023-07-24T02:36:31;10.60;;;7.40;;
35891;SDS011;21993;42.672;23.296;2023-07-24T02:38:57;14.43;;;8.23;;
35891;SDS011;21993;42.672;23.296;2023-07-24T02:41:22;10.17;;;7.17;;
35891;SDS011;21993;42.672;23.296;2023-07-24T02:43:48;11.33;;;7.20;;
35891;SDS011;21993;42.672;23.296;2023-07-24T02:46:13;11.57;;;7.53;;
35891;SDS011;21993;42.672;23.296;2023-07-24T02:48:38;10.40;;;7.37;;
35891;SDS011;21993;42.672;23.296;2023-07-24T02:51:04;9.63;;;6.97;;
35891;SDS011;21993;42.672;23.296;2023-07-24T02:53:29;12.93;;;6.83;;
35891;SDS011;21993;42.672;23.296;2023-07-24T02:55:54;12.13;;;7.03;;
35891;SDS011;21993;42.672;23.296;2023-07-24T02:58:20;10.60;;;7.13;;
35891;SDS011;21993;42.672;23.296;2023-07-24T03:00:46;12.03;;;7.97;;
35891;SDS011;21993;42.672;23.296;2023-07-24T03:03:11;10.47;;;7.23;;
35891;SDS011;21993;42.672;23.296;2023-07-24T03:05:37;12.50;;;7.40;;
35891;SDS011;21993;42.672;23.296;2023-07-24T03:08:02;9.53;;;7.27;;
35891;SDS011;21993;42.672;23.296;2023-07-24T03:10:28;10.73;;;7.30;;
35891;SDS011;21993;42.672;23.296;2023-07-24T03:12:53;11.90;;;7.33;;
35891;SDS011;21993;42.672;23.296;2023-07-24T03:15:19;9.47;;;6.87;;
35891;SDS011;21993;42.672;23.296;2023-07-24T03:17:44;9.97;;;7.40;;
35891;SDS011;21993;42.672;23.296;2023-07-24T03:20:17;10.53;;;6.87;;
35891;SDS011;21993;42.672;23.296;2023-07-24T03:22:43;10.53;;;7.70;;
35891;SDS011;21993;42.672;23.296;2023-07-24T03:25:09;13.87;;;7.80;;
35891;SDS011;21993;42.672;23.296;2023-07-24T03:27:35;9.67;;;6.90;;
35891;SDS011;21993;42.672;23.296;2023-07-24T03:30:00;9.43;;;7.77;;
35891;SDS011;21993;42.672;23.296;2023-07-24T03:32:26;11.67;;;8.23;;
35891;SDS011;21993;42.672;23.296;2023-07-24T03:34:51;10.07;;;8.00;;
35891;SDS011;21993;42.672;23.296;2023-07-24T03:37:17;11.93;;;7.63;;
35891;SDS011;21993;42.672;23.296;2023-07-24T03:39:42;11.57;;;7.73;;
35891;SDS011;21993;42.672;23.296;2023-07-24T03:42:09;10.40;;;7.53;;
35891;SDS011;21993;42.672;23.296;2023-07-24T03:44:38;12.73;;;7.77;;
35891;SDS011;21993;42.672;23.296;2023-07-24T03:47:07;11.03;;;7.40;;
35891;SDS011;21993;42.672;23.296;2023-07-24T03:49:32;9.70;;;6.87;;
35891;SDS011;21993;42.672;23.296;2023-07-24T03:51:58;13.53;;;7.80;;
35891;SDS011;21993;42.672;23.296;2023-07-24T03:54:24;12.63;;;7.53;;
35891;SDS011;21993;42.672;23.296;2023-07-24T03:56:49;11.30;;;7.47;;
35891;SDS011;21993;42.672;23.296;2023-07-24T03:59:14;12.63;;;8.03;;
35891;SDS011;21993;42.672;23.296;2023-07-24T04:01:40;12.23;;;7.10;;
35891;SDS011;21993;42.672;23.296;2023-07-24T04:04:05;9.13;;;7.37;;
35891;SDS011;21993;42.672;23.296;2023-07-24T04:06:31;10.53;;;7.13;;
35891;SDS011;21993;42.672;23.296;2023-07-24T04:08:56;9.50;;;6.50;;
35891;SDS011;21993;42.672;23.296;2023-07-24T04:11:21;13.03;;;7.63;;
35891;SDS011;21993;42.672;23.296;2023-07-24T04:13:47;15.90;;;9.13;;
35891;SDS011;21993;42.672;23.296;2023-07-24T04:16:12;13.83;;;7.03;;
35891;SDS011;21993;42.672;23.296;2023-07-24T04:18:37;8.80;;;7.17;;
35891;SDS011;21993;42.672;23.296;2023-07-24T04:21:03;10.87;;;7.57;;
35891;SDS011;21993;42.672;23.296;2023-07-24T04:23:28;11.07;;;7.67;;
35891;SDS011;21993;42.672;23.296;2023-07-24T04:25:54;10.00;;;7.73;;
35891;SDS011;21993;42.672;23.296;2023-07-24T04:28:19;12.20;;;7.93;;
35891;SDS011;21993;42.672;23.296;2023-07-24T04:30:45;11.77;;;8.60;;
35891;SDS011;21993;42.672;23.296;2023-07-24T04:33:10;9.40;;;7.37;;
35891;SDS011;21993;42.672;23.296;2023-07-24T04:35:35;10.93;;;7.93;;
35891;SDS011;21993;42.672;23.296;2023-07-24T04:38:01;13.07;;;7.00;;
35891;SDS011;21993;42.672;23.296;2023-07-24T04:40:26;20.87;;;7.60;;
35891;SDS011;21993;42.672;23.296;2023-07-24T04:42:51;14.90;;;8.17;;
35891;SDS011;21993;42.672;23.296;2023-07-24T04:45:17;11.37;;;7.53;;
35891;SDS011;21993;42.672;23.296;2023-07-24T04:47:42;13.83;;;8.50;;
35891;SDS011;21993;42.672;23.296;2023-07-24T04:50:08;12.53;;;9.00;;
35891;SDS011;21993;42.672;23.296;2023-07-24T04:52:34;13.83;;;8.67;;
35891;SDS011;21993;42.672;23.296;2023-07-24T04:54:59;15.63;;;9.33;;
35891;SDS011;21993;42.672;23.296;2023-07-24T04:57:24;21.07;;;10.27;;
35891;SDS011;21993;42.672;23.296;2023-07-24T04:59:50;15.73;;;8.73;;
35891;SDS011;21993;42.672;23.296;2023-07-24T05:02:15;14.23;;;8.60;;
35891;SDS011;21993;42.672;23.296;2023-07-24T05:04:40;10.93;;;8.23;;
35891;SDS011;21993;42.672;23.296;2023-07-24T05:07:06;15.33;;;9.03;;
35891;SDS011;21993;42.672;23.296;2023-07-24T05:09:32;15.10;;;8.80;;
35891;SDS011;21993;42.672;23.296;2023-07-24T05:11:57;21.27;;;10.00;;
35891;SDS011;21993;42.672;23.296;2023-07-24T05:14:22;13.53;;;9.10;;
35891;SDS011;21993;42.672;23.296;2023-07-24T05:16:48;17.80;;;9.83;;
35891;SDS011;21993;42.672;23.296;2023-07-24T05:19:13;18.03;;;10.33;;
35891;SDS011;21993;42.672;23.296;2023-07-24T05:21:38;14.47;;;9.30;;
35891;SDS011;21993;42.672;23.296;2023-07-24T05:24:04;16.20;;;8.90;;
35891;SDS011;21993;42.672;23.296;2023-07-24T05:26:29;15.67;;;9.90;;
35891;SDS011;21993;42.672;23.296;2023-07-24T05:28:55;14.50;;;9.07;;
35891;SDS011;21993;42.672;23.296;2023-07-24T05:31:20;14.30;;;8.97;;
35891;SDS011;21993;42.672;23.296;2023-07-24T05:33:45;12.43;;;8.73;;
35891;SDS011;21993;42.672;23.296;2023-07-24T05:36:11;16.87;;;9.50;;
35891;SDS011;21993;42.672;23.296;2023-07-24T05:38:36;13.83;;;8.60;;
35891;SDS011;21993;42.672;23.296;2023-07-24T05:41:02;15.40;;;8.80;;
35891;SDS011;21993;42.672;23.296;2023-07-24T05:43:28;12.30;;;8.63;;
35891;SDS011;21993;42.672;23.296;2023-07-24T05:45:55;14.73;;;8.77;;
35891;SDS011;21993;42.672;23.296;2023-07-24T05:48:21;15.90;;;9.27;;
35891;SDS011;21993;42.672;23.296;2023-07-24T05:50:48;11.53;;;8.40;;
35891;SDS011;21993;42.672;23.296;2023-07-24T05:53:14;14.63;;;10.20;;
35891;SDS011;21993;42.672;23.296;2023-07-24T05:55:40;14.23;;;9.20;;
35891;SDS011;21993;42.672;23.296;2023-07-24T05:58:05;13.40;;;8.90;;
35891;SDS011;21993;42.672;23.296;2023-07-24T06:00:31;14.53;;;9.67;;
35891;SDS011;21993;42.672;23.296;2023-07-24T06:02:56;13.17;;;9.30;;
35891;SDS011;21993;42.672;23.296;2023-07-24T06:05:22;15.60;;;10.03;;
35891;SDS011;21993;42.672;23.296;2023-07-24T06:07:47;16.93;;;10.03;;
35891;SDS011;21993;42.672;23.296;2023-07-24T06:10:13;14.73;;;9.47;;
35891;SDS011;21993;42.672;23.296;2023-07-24T06:12:39;15.90;;;10.03;;
35891;SDS011;21993;42.672;23.296;2023-07-24T06:15:04;14.53;;;9.63;;
35891;SDS011;21993;42.672;23.296;2023-07-24T06:17:31;14.80;;;9.23;;
35891;SDS011;21993;42.672;23.296;2023-07-24T06:19:56;14.30;;;9.03;;
35891;SDS011;21993;42.672;23.296;2023-07-24T06:22:22;14.00;;;9.00;;
35891;SDS011;21993;42.672;23.296;2023-07-24T06:24:47;13.80;;;9.27;;
35891;SDS011;21993;42.672;23.296;2023-07-24T06:27:13;19.60;;;9.10;;
35891;SDS011;21993;42.672;23.296;2023-07-24T06:29:38;17.90;;;9.30;;
35891;SDS011;21993;42.672;23.296;2023-07-24T06:32:04;17.33;;;9.97;;
35891;SDS011;21993;42.672;23.296;2023-07-24T06:34:30;16.90;;;9.83;;
35891;SDS011;21993;42.672;23.296;2023-07-24T06:36:55;13.57;;;8.90;;
35891;SDS011;21993;42.672;23.296;2023-07-24T06:39:21;15.20;;;9.60;;
35891;SDS011;21993;42.672;23.296;2023-07-24T06:41:46;16.37;;;10.10;;
35891;SDS011;21993;42.672;23.296;2023-07-24T06:44:11;13.93;;;8.60;;
35891;SDS011;21993;42.672;23.296;2023-07-24T06:46:37;14.87;;;9.10;;
35891;SDS011;21993;42.672;23.296;2023-07-24T06:49:02;15.40;;;9.63;;
35891;SDS011;21993;42.672;23.296;2023-07-24T06:51:28;13.60;;;9.33;;
35891;SDS011;21993;42.672;23.296;2023-07-24T06:53:54;15.67;;;9.00;;
35891;SDS011;21993;42.672;23.296;2023-07-24T06:56:19;15.10;;;9.20;;
35891;SDS011;21993;42.672;23.296;2023-07-24T06:58:44;14.63;;;9.37;;
35891;SDS011;21993;42.672;23.296;2023-07-24T07:01:10;12.13;;;9.10;;
35891;SDS011;21993;42.672;23.296;2023-07-24T07:03:35;13.90;;;9.23;;
35891;SDS011;21993;42.672;23.296;2023-07-24T07:06:01;22.70;;;12.33;;
35891;SDS011;21993;42.672;23.296;2023-07-24T07:08:27;15.53;;;9.63;;
35891;SDS011;21993;42.672;23.296;2023-07-24T07:10:54;16.00;;;8.57;;
35891;SDS011;21993;42.672;23.296;2023-07-24T07:13:21;11.87;;;8.27;;
35891;SDS011;21993;42.672;23.296;2023-07-24T07:15:46;12.33;;;7.97;;
35891;SDS011;21993;42.672;23.296;2023-07-24T07:18:12;14.03;;;8.70;;
35891;SDS011;21993;42.672;23.296;2023-07-24T07:20:37;13.50;;;8.37;;
35891;SDS011;21993;42.672;23.296;2023-07-24T07:23:02;10.63;;;7.67;;
35891;SDS011;21993;42.672;23.296;2023-07-24T07:25:28;12.63;;;8.10;;
35891;SDS011;21993;42.672;23.296;2023-07-24T07:27:53;13.10;;;8.43;;
35891;SDS011;21993;42.672;23.296;2023-07-24T07:30:18;11.87;;;7.87;;
35891;SDS011;21993;42.672;23.296;2023-07-24T07:32:44;9.63;;;7.23;;
35891;SDS011;21993;42.672;23.296;2023-07-24T07:35:09;12.40;;;7.77;;
35891;SDS011;21993;42.672;23.296;2023-07-24T07:37:35;12.77;;;7.27;;
35891;SDS011;21993;42.672;23.296;2023-07-24T07:40:00;9.87;;;7.83;;
35891;SDS011;21993;42.672;23.296;2023-07-24T07:42:25;12.73;;;8.00;;
35891;SDS011;21993;42.672;23.296;2023-07-24T07:44:51;11.07;;;7.33;;
35891;SDS011;21993;42.672;23.296;2023-07-24T07:47:16;15.77;;;8.20;;
35891;SDS011;21993;42.672;23.296;2023-07-24T07:49:42;12.37;;;8.03;;
35891;SDS011;21993;42.672;23.296;2023-07-24T07:52:07;9.97;;;7.57;;
35891;SDS011;21993;42.672;23.296;2023-07-24T07:54:32;12.50;;;7.20;;
35891;SDS011;21993;42.672;23.296;2023-07-24T07:56:58;14.10;;;9.07;;
35891;SDS011;21993;42.672;23.296;2023-07-24T07:59:23;16.00;;;8.73;;
35891;SDS011;21993;42.672;23.296;2023-07-24T08:01:48;17.90;;;8.37;;
35891;SDS011;21993;42.672;23.296;2023-07-24T08:04:14;12.73;;;8.03;;
35891;SDS011;21993;42.672;23.296;2023-07-24T08:06:39;17.10;;;8.97;;
35891;SDS011;21993;42.672;23.296;2023-07-24T08:09:05;15.53;;;9.33;;
35891;SDS011;21993;42.672;23.296;2023-07-24T08:11:30;12.33;;;8.17;;
35891;SDS011;21993;42.672;23.296;2023-07-24T08:13:55;14.43;;;8.87;;
35891;SDS011;21993;42.672;23.296;2023-07-24T08:16:21;18.30;;;9.20;;
35891;SDS011;21993;42.672;23.296;2023-07-24T08:18:46;13.13;;;9.67;;
35891;SDS011;21993;42.672;23.296;2023-07-24T08:21:13;16.77;;;9.00;;
35891;SDS011;21993;42.672;23.296;2023-07-24T08:23:39;16.70;;;9.73;;
35891;SDS011;21993;42.672;23.296;2023-07-24T08:26:05;14.10;;;9.00;;
35891;SDS011;21993;42.672;23.296;2023-07-24T08:28:31;21.30;;;9.73;;
35891;SDS011;21993;42.672;23.296;2023-07-24T08:30:57;16.60;;;10.33;;
35891;SDS011;21993;42.672;23.296;2023-07-24T08:33:23;16.30;;;9.53;;
35891;SDS011;21993;42.672;23.296;2023-07-24T08:35:58;18.83;;;10.37;;
35891;SDS011;21993;42.672;23.296;2023-07-24T08:38:27;13.53;;;9.60;;
35891;SDS011;21993;42.672;23.296;2023-07-24T08:41:00;16.27;;;9.13;;
35891;SDS011;21993;42.672;23.296;2023-07-24T08:43:26;14.60;;;9.93;;
35891;SDS011;21993;42.672;23.296;2023-07-24T08:45:53;15.70;;;9.83;;
35891;SDS011;21993;42.672;23.296;2023-07-24T08:48:19;16.70;;;10.53;;
35891;SDS011;21993;42.672;23.296;2023-07-24T08:50:46;15.87;;;10.20;;
35891;SDS011;21993;42.672;23.296;2023-07-24T08:53:14;19.73;;;10.90;;
35891;SDS011;21993;42.672;23.296;2023-07-24T08:55:40;14.33;;;10.20;;
35891;SDS011;21993;42.672;23.296;2023-07-24T08:58:06;16.07;;;9.77;;
35891;SDS011;21993;42.672;23.296;2023-07-24T09:00:32;15.33;;;9.23;;
35891;SDS011;21993;42.672;23.296;2023-07-24T09:02:57;16.10;;;10.73;;
35891;SDS011;21993;42.672;23.296;2023-07-24T09:05:23;15.27;;;9.87;;
35891;SDS011;21993;42.672;23.296;2023-07-24T09:07:48;15.43;;;9.07;;
35891;SDS011;21993;42.672;23.296;2023-07-24T09:10:14;13.70;;;9.50;;
35891;SDS011;21993;42.672;23.296;2023-07-24T09:12:41;15.27;;;9.63;;
35891;SDS011;21993;42.672;23.296;2023-07-24T09:15:07;14.40;;;10.17;;
35891;SDS011;21993;42.672;23.296;2023-07-24T09:17:32;15.73;;;9.90;;
35891;SDS011;21993;42.672;23.296;2023-07-24T09:19:58;18.77;;;9.87;;
35891;SDS011;21993;42.672;23.296;2023-07-24T09:22:23;14.37;;;9.40;;
35891;SDS011;21993;42.672;23.296;2023-07-24T09:24:54;18.97;;;9.30;;
35891;SDS011;21993;42.672;23.296;2023-07-24T09:27:24;18.73;;;10.13;;
35891;SDS011;21993;42.672;23.296;2023-07-24T09:29:51;15.37;;;9.20;;
35891;SDS011;21993;42.672;23.296;2023-07-24T09:34:45;13.83;;;9.83;;
35891;SDS011;21993;42.672;23.296;2023-07-24T09:37:11;16.23;;;10.23;;
35891;SDS011;21993;42.672;23.296;2023-07-24T09:39:47;14.87;;;10.00;;
35891;SDS011;21993;42.672;23.296;2023-07-24T09:42:12;13.37;;;9.63;;
35891;SDS011;21993;42.672;23.296;2023-07-24T09:44:38;16.87;;;10.23;;
35891;SDS011;21993;42.672;23.296;2023-07-24T09:47:03;15.17;;;10.17;;
35891;SDS011;21993;42.672;23.296;2023-07-24T09:49:30;15.70;;;9.77;;
35891;SDS011;21993;42.672;23.296;2023-07-24T09:51:55;15.43;;;9.40;;
35891;SDS011;21993;42.672;23.296;2023-07-24T09:54:25;15.50;;;9.80;;
35891;SDS011;21993;42.672;23.296;2023-07-24T09:56:57;15.93;;;9.80;;
35891;SDS011;21993;42.672;23.296;2023-07-24T09:59:25;15.73;;;9.77;;
35891;SDS011;21993;42.672;23.296;2023-07-24T10:01:52;12.63;;;9.03;;
35891;SDS011;21993;42.672;23.296;2023-07-24T10:04:18;17.07;;;10.27;;
35891;SDS011;21993;42.672;23.296;2023-07-24T10:06:44;15.83;;;10.27;;
35891;SDS011;21993;42.672;23.296;2023-07-24T10:09:11;15.33;;;9.87;;
35891;SDS011;21993;42.672;23.296;2023-07-24T10:11:37;19.63;;;9.90;;
35891;SDS011;21993;42.672;23.296;2023-07-24T10:14:02;18.17;;;9.80;;
35891;SDS011;21993;42.672;23.296;2023-07-24T10:16:28;16.77;;;8.97;;
35891;SDS011;21993;42.672;23.296;2023-07-24T10:18:55;15.10;;;8.47;;
35891;SDS011;21993;42.672;23.296;2023-07-24T10:21:26;14.37;;;9.20;;
35891;SDS011;21993;42.672;23.296;2023-07-24T10:23:52;16.52;;;9.60;;
35891;SDS011;21993;42.672;23.296;2023-07-24T10:26:24;18.13;;;9.88;;
35891;SDS011;21993;42.672;23.296;2023-07-24T10:28:51;14.98;;;9.32;;
35891;SDS011;21993;42.672;23.296;2023-07-24T10:31:21;15.05;;;9.23;;
35891;SDS011;21993;42.672;23.296;2023-07-24T10:33:48;11.98;;;8.95;;
35891;SDS011;21993;42.672;23.296;2023-07-24T10:36:16;17.87;;;8.30;;
35891;SDS011;21993;42.672;23.296;2023-07-24T10:38:44;14.97;;;7.87;;
35891;SDS011;21993;42.672;23.296;2023-07-24T10:41:10;14.57;;;7.47;;
35891;SDS011;21993;42.672;23.296;2023-07-24T10:43:40;16.43;;;8.03;;
35891;SDS011;21993;42.672;23.296;2023-07-24T10:46:10;20.27;;;10.02;;
35891;SDS011;21993;42.672;23.296;2023-07-24T10:48:36;13.90;;;8.30;;
35891;SDS011;21993;42.672;23.296;2023-07-24T10:51:11;16.83;;;8.13;;
35891;SDS011;21993;42.672;23.296;2023-07-24T10:53:40;11.82;;;8.00;;
35891;SDS011;21993;42.672;23.296;2023-07-24T10:56:14;16.42;;;7.22;;
35891;SDS011;21993;42.672;23.296;2023-07-24T10:58:40;12.07;;;6.93;;
35891;SDS011;21993;42.672;23.296;2023-07-24T11:01:06;12.70;;;6.65;;
35891;SDS011;21993;42.672;23.296;2023-07-24T11:03:32;12.60;;;6.65;;
35891;SDS011;21993;42.672;23.296;2023-07-24T11:06:00;14.13;;;6.95;;
35891;SDS011;21993;42.672;23.296;2023-07-24T11:08:27;12.00;;;7.25;;
35891;SDS011;21993;42.672;23.296;2023-07-24T11:10:54;11.95;;;6.43;;
35891;SDS011;21993;42.672;23.296;2023-07-24T11:13:21;16.55;;;6.72;;
35891;SDS011;21993;42.672;23.296;2023-07-24T11:15:48;12.50;;;6.60;;
35891;SDS011;21993;42.672;23.296;2023-07-24T11:18:14;14.98;;;7.82;;
35891;SDS011;21993;42.672;23.296;2023-07-24T11:20:48;13.68;;;7.03;;
35891;SDS011;21993;42.672;23.296;2023-07-24T11:23:18;12.85;;;6.80;;
35891;SDS011;21993;42.672;23.296;2023-07-24T11:25:44;12.70;;;7.47;;
35891;SDS011;21993;42.672;23.296;2023-07-24T11:28:11;12.38;;;8.02;;
35891;SDS011;21993;42.672;23.296;2023-07-24T11:30:38;11.98;;;7.40;;
35891;SDS011;21993;42.672;23.296;2023-07-24T11:33:04;15.95;;;7.68;;
35891;SDS011;21993;42.672;23.296;2023-07-24T11:35:31;13.98;;;7.28;;
35891;SDS011;21993;42.672;23.296;2023-07-24T11:37:58;11.27;;;7.70;;
35891;SDS011;21993;42.672;23.296;2023-07-24T11:42:59;14.27;;;8.18;;
35891;SDS011;21993;42.672;23.296;2023-07-24T11:45:24;15.40;;;8.25;;
35891;SDS011;21993;42.672;23.296;2023-07-24T11:47:50;11.93;;;8.43;;
35891;SDS011;21993;42.672;23.296;2023-07-24T11:50:18;15.77;;;8.50;;
35891;SDS011;21993;42.672;23.296;2023-07-24T11:52:45;14.23;;;7.93;;
35891;SDS011;21993;42.672;23.296;2023-07-24T11:55:13;13.63;;;8.18;;
35891;SDS011;21993;42.672;23.296;2023-07-24T11:57:39;11.07;;;8.05;;
35891;SDS011;21993;42.672;23.296;2023-07-24T12:00:05;15.73;;;7.82;;
35891;SDS011;21993;42.672;23.296;2023-07-24T12:02:42;12.25;;;8.25;;
35891;SDS011;21993;42.672;23.296;2023-07-24T12:05:09;17.13;;;7.80;;
35891;SDS011;21993;42.672;23.296;2023-07-24T12:07:35;12.25;;;7.45;;
35891;SDS011;21993;42.672;23.296;2023-07-24T12:10:01;10.48;;;6.80;;
35891;SDS011;21993;42.672;23.296;2023-07-24T12:15:03;11.55;;;7.38;;
35891;SDS011;21993;42.672;23.296;2023-07-24T12:17:29;10.85;;;7.60;;
35891;SDS011;21993;42.672;23.296;2023-07-24T12:19:55;10.52;;;6.57;;
35891;SDS011;21993;42.672;23.296;2023-07-24T12:22:20;9.80;;;7.00;;
35891;SDS011;21993;42.672;23.296;2023-07-24T12:24:46;15.55;;;8.40;;
35891;SDS011;21993;42.672;23.296;2023-07-24T12:27:11;14.45;;;7.97;;
35891;SDS011;21993;42.672;23.296;2023-07-24T12:29:36;12.80;;;8.43;;
35891;SDS011;21993;42.672;23.296;2023-07-24T12:32:02;13.05;;;8.15;;
35891;SDS011;21993;42.672;23.296;2023-07-24T12:34:27;12.85;;;8.18;;
35891;SDS011;21993;42.672;23.296;2023-07-24T12:36:53;11.90;;;7.55;;
35891;SDS011;21993;42.672;23.296;2023-07-24T12:39:19;12.52;;;7.75;;
35891;SDS011;21993;42.672;23.296;2023-07-24T12:41:45;13.57;;;8.20;;
35891;SDS011;21993;42.672;23.296;2023-07-24T12:44:10;16.27;;;7.93;;
35891;SDS011;21993;42.672;23.296;2023-07-24T12:46:35;16.58;;;7.60;;
35891;SDS011;21993;42.672;23.296;2023-07-24T12:49:01;14.35;;;8.38;;
35891;SDS011;21993;42.672;23.296;2023-07-24T12:51:26;13.35;;;7.65;;
35891;SDS011;21993;42.672;23.296;2023-07-24T12:53:52;15.77;;;8.07;;
35891;SDS011;21993;42.672;23.296;2023-07-24T12:56:17;12.88;;;8.07;;
35891;SDS011;21993;42.672;23.296;2023-07-24T12:58:42;13.73;;;8.95;;
35891;SDS011;21993;42.672;23.296;2023-07-24T13:01:09;10.23;;;7.60;;
35891;SDS011;21993;42.672;23.296;2023-07-24T13:03:34;10.98;;;7.47;;
35891;SDS011;21993;42.672;23.296;2023-07-24T13:06:00;13.35;;;8.18;;
35891;SDS011;21993;42.672;23.296;2023-07-24T13:08:25;17.92;;;7.22;;
35891;SDS011;21993;42.672;23.296;2023-07-24T13:10:51;13.50;;;7.68;;
35891;SDS011;21993;42.672;23.296;2023-07-24T13:13:16;11.35;;;7.75;;
35891;SDS011;21993;42.672;23.296;2023-07-24T13:15:42;13.55;;;7.90;;
35891;SDS011;21993;42.672;23.296;2023-07-24T13:18:07;11.00;;;7.95;;
35891;SDS011;21993;42.672;23.296;2023-07-24T13:20:33;11.48;;;7.80;;
35891;SDS011;21993;42.672;23.296;2023-07-24T13:22:58;11.63;;;8.30;;
35891;SDS011;21993;42.672;23.296;2023-07-24T13:25:24;8.18;;;7.38;;
35891;SDS011;21993;42.672;23.296;2023-07-24T13:27:49;11.10;;;7.90;;
35891;SDS011;21993;42.672;23.296;2023-07-24T13:30:15;12.00;;;7.90;;
35891;SDS011;21993;42.672;23.296;2023-07-24T13:32:41;16.10;;;8.20;;
35891;SDS011;21993;42.672;23.296;2023-07-24T13:35:06;13.30;;;8.52;;
35891;SDS011;21993;42.672;23.296;2023-07-24T13:37:32;11.15;;;7.68;;
35891;SDS011;21993;42.672;23.296;2023-07-24T13:39:57;11.43;;;8.40;;
35891;SDS011;21993;42.672;23.296;2023-07-24T13:42:23;16.38;;;8.80;;
35891;SDS011;21993;42.672;23.296;2023-07-24T13:44:48;12.93;;;8.57;;
35891;SDS011;21993;42.672;23.296;2023-07-24T13:47:13;13.27;;;8.15;;
35891;SDS011;21993;42.672;23.296;2023-07-24T13:49:39;9.93;;;7.30;;
35891;SDS011;21993;42.672;23.296;2023-07-24T13:52:04;11.27;;;8.35;;
35891;SDS011;21993;42.672;23.296;2023-07-24T13:54:30;12.05;;;8.02;;
35891;SDS011;21993;42.672;23.296;2023-07-24T13:56:56;14.40;;;8.50;;
35891;SDS011;21993;42.672;23.296;2023-07-24T13:59:21;11.85;;;8.57;;
35891;SDS011;21993;42.672;23.296;2023-07-24T14:01:46;14.82;;;8.93;;
35891;SDS011;21993;42.672;23.296;2023-07-24T14:04:12;11.15;;;8.77;;
35891;SDS011;21993;42.672;23.296;2023-07-24T14:06:39;13.98;;;8.68;;
35891;SDS011;21993;42.672;23.296;2023-07-24T14:09:04;11.90;;;8.93;;
35891;SDS011;21993;42.672;23.296;2023-07-24T14:11:30;11.18;;;7.82;;
35891;SDS011;21993;42.672;23.296;2023-07-24T14:13:55;14.52;;;8.57;;
35891;SDS011;21993;42.672;23.296;2023-07-24T14:16:20;16.17;;;9.25;;
35891;SDS011;21993;42.672;23.296;2023-07-24T14:18:46;10.20;;;8.55;;
35891;SDS011;21993;42.672;23.296;2023-07-24T14:21:11;15.85;;;9.05;;
35891;SDS011;21993;42.672;23.296;2023-07-24T14:23:37;14.25;;;8.82;;
35891;SDS011;21993;42.672;23.296;2023-07-24T14:26:02;11.95;;;8.38;;